Aeroporto :
LOGIN :

Iscrizione | Disclaimer

   EN    FR    IT 

 










Sommario :    VFR   VFR Marginale   IFR   IFR Intensivo   IFR Molto Intensivo
Visibilità : 
Base nubi : 
>= 8 km
>= 3000ft
5 / 8 km
1000 / 3000 ft
1500m / 5 km
500 / 1000 ft
800 / 1500m
200 / 500 ft
< 800m
< 200 ft
Simboli :   Temporali  Nebbia  Neve Forte  Precipitazioni Forti  Vento > 20 kt
SIGMETs :   Varie  Temporali  Ghiacco  Turbolenza  Onda orograficha  Ceneri Vulcaniche






- Altitudine del aeroporto : 74 ft
- Codice IATA : MRS


LFML - Marseille / Marignane

ULTIMO METAR :
  • 211430Z AUTO 13006KT 9999 FEW017 SCT035 BKN046 18/16 Q1020 TEMPO 2500 TSRA BKN010 BKN040CB

METARs OBSOLETI :
  • 211400Z AUTO 15007KT 9999 FEW023 BKN052 BKN064 18/15 Q1020 TEMPO 2500 TSRA BKN012 BKN040CB OVC060
  • 211330Z AUTO 14011KT 9999 FEW017 BKN058 BKN100 19/16 Q1020 TEMPO 2500 TSRA BKN012 BKN040CB OVC060
  • 211300Z AUTO 14008KT 9999 BKN015/// BKN022/// BKN044/// ///TCU 18/16 Q1019 TEMPO 2500 TSRA BKN012 BKN040CB OVC060
  • 211230Z AUTO 15006KT 110V180 9999 BKN016/// BKN022/// BKN029/// ///TCU 18/17 Q1019 TEMPO 2500 TSRA BKN012 BKN040CB OVC060
  • 211200Z AUTO 11009KT 9999 -RA BKN014/// BKN028/// BKN048/// ///TCU 18/16 Q1019 TEMPO 2500 TSRA BKN012 BKN040CB OVC060
  • 211130Z AUTO 11008KT 9999 -RA BKN013/// BKN038/// BKN052/// ///CB 18/17 Q1019 TEMPO 2500 TSRA

TAF TAF LFML
Valido dal 21 a 15 ore il 22 a 21 ore UTC


211400Z 2115/2221 13010KT 8000 RA BKN013 BKN045TCU TX23/2215Z TN16/2200Z
PROB40
TEMPO 2115/2212 2500 TSRA BKN010 BKN040CB
BECMG 2123/2124 33008KT
BECMG 2209/2211 11015G25KT
BECMG 2218/2220 11020G35KT
ATIS : +33 4 42 31 15 15



MetMap, La meteo Aeronautica in un colpo d'occhio ! - Copyright ORBIFLY Dicembre 2007 - Disclaimer

ORBIFLY MET'MAP TEAM :

Programmazione e sviluppo : Alexandra Zaïnal
Concezione e sviluppo : Baudouin d'Aumeries
Co-Programmazione e sviluppo : Marc-Olivier Méhu
Supporto tecnico e logistico : Manuel Goepfert
Aiuto per la traduzione : Arnaldo La Scala

Contatto : metmap@orbifly.com




FONTI E CREDITI :

   NOAA